createdAt,value
2022-10-22T00:01:30.545Z,99981.03
2022-10-22T00:03:58.514Z,99982.78
2022-10-22T00:06:26.609Z,99984.41
2022-10-22T00:08:55.419Z,99979.31
2022-10-22T00:11:23.490Z,99988.06
2022-10-22T00:13:51.491Z,99989.59
2022-10-22T00:16:19.483Z,99983.72
2022-10-22T00:18:48.873Z,99983.66
2022-10-22T00:21:16.897Z,99981.03
2022-10-22T00:23:45.163Z,99987.91
2022-10-22T00:26:13.405Z,99981.78
2022-10-22T00:28:41.629Z,99986.97
2022-10-22T00:31:09.865Z,99980.56
2022-10-22T00:33:37.886Z,99975.25
2022-10-22T00:36:08.201Z,99978.72
2022-10-22T00:38:36.629Z,99972.50
2022-10-22T00:41:04.755Z,99969.13
2022-10-22T00:43:32.945Z,99973.63
2022-10-22T00:46:00.966Z,99968.34
2022-10-22T00:48:33.396Z,99955.16
2022-10-22T00:51:04.298Z,99954.31
2022-10-22T00:53:38.682Z,99961.22
2022-10-22T00:56:07.774Z,99969.19
2022-10-22T00:58:40.290Z,99961.38
2022-10-22T01:01:11.544Z,99963.22
2022-10-22T01:03:39.584Z,99973.78
2022-10-22T01:06:08.600Z,99970.97
2022-10-22T01:08:46.467Z,99965.13
2022-10-22T01:11:19.914Z,99972.94
2022-10-22T01:13:55.452Z,99965.03
2022-10-22T01:16:31.714Z,99966.13
2022-10-22T01:19:09.398Z,99969.72
2022-10-22T01:21:43.536Z,99968.75
2022-10-22T01:24:25.698Z,99966.13
2022-10-22T01:27:06.149Z,99957.63
2022-10-22T01:29:40.156Z,99961.91
2022-10-22T01:32:12.816Z,99967.31
2022-10-22T01:34:44.327Z,99972.06
2022-10-22T01:37:15.319Z,99960.78
2022-10-22T01:39:46.574Z,99967.84
2022-10-22T01:42:16.138Z,99961.72
2022-10-22T01:44:45.565Z,99954.72
2022-10-22T01:47:20.267Z,99956.09
2022-10-22T01:50:10.413Z,99949.22
2022-10-22T01:52:55.336Z,99952.78
2022-10-22T01:55:30.867Z,99957.31
2022-10-22T01:58:08.203Z,99951.25
2022-10-22T02:00:41.026Z,99947.59
2022-10-22T02:03:17.483Z,99950.50
2022-10-22T02:05:53.187Z,99954.97
2022-10-22T02:08:24.922Z,99952.59
2022-10-22T02:10:54.518Z,99942.16
2022-10-22T02:13:28.255Z,99952.97
2022-10-22T02:15:59.810Z,99948.63
2022-10-22T02:18:35.273Z,99951.31
2022-10-22T02:23:40.726Z,99951.84
2022-10-22T02:26:26.500Z,99943.34
2022-10-22T02:29:00.980Z,99945.22
2022-10-22T02:31:33.700Z,99956.66
2022-10-22T02:34:04.920Z,99953.44
2022-10-22T02:36:33.601Z,99945.69
2022-10-22T02:39:02.667Z,99928.28
2022-10-22T02:41:31.483Z,99929.03
2022-10-22T02:43:59.462Z,99945.25
2022-10-22T02:46:27.617Z,99953.50
2022-10-22T02:48:56.991Z,99955.56
2022-10-22T02:51:24.987Z,99967.38
2022-10-22T02:53:52.972Z,99968.88
2022-10-22T02:56:21.025Z,99967.66
2022-10-22T02:58:49.043Z,99967.09
2022-10-22T03:01:17.105Z,99963.16
2022-10-22T03:03:45.110Z,99952.97
2022-10-22T03:06:14.542Z,99965.47
2022-10-22T03:08:42.829Z,99970.44
2022-10-22T03:11:11.011Z,99974.53
2022-10-22T03:13:39.120Z,99963.25
2022-10-22T03:16:07.723Z,99955.06
2022-10-22T03:18:36.008Z,99957.69
2022-10-22T03:21:11.158Z,99948.25
2022-10-22T03:23:42.049Z,99955.34
2022-10-22T03:26:11.544Z,99952.81
2022-10-22T03:28:41.414Z,99942.38
2022-10-22T03:31:09.590Z,99937.88
2022-10-22T03:33:37.594Z,99926.91
2022-10-22T03:36:07.428Z,99927.09
2022-10-22T03:38:36.405Z,99913.81
2022-10-22T03:41:06.385Z,99916.28
2022-10-22T03:43:35.629Z,99924.31
2022-10-22T03:46:03.684Z,99913.81
2022-10-22T03:48:31.775Z,99907.78
2022-10-22T03:50:59.806Z,99911.25
2022-10-22T03:53:27.784Z,99928.16
2022-10-22T03:55:55.772Z,99924.91
2022-10-22T03:58:25.157Z,99918.09
2022-10-22T04:00:53.450Z,99918.25
2022-10-22T04:03:21.460Z,99930.09
2022-10-22T04:05:49.421Z,99931.66
2022-10-22T04:08:17.415Z,99939.16
2022-10-22T04:10:52.676Z,99946.09
2022-10-22T04:13:20.673Z,99935.38
2022-10-22T04:15:52.035Z,99933.31
2022-10-22T04:18:20.057Z,99928.91
2022-10-22T04:20:48.347Z,99938.09
2022-10-22T04:23:18.414Z,99938.47
2022-10-22T04:25:46.367Z,99944.88
2022-10-22T04:28:14.351Z,99944.19
2022-10-22T04:30:42.384Z,99944.41
2022-10-22T04:33:11.753Z,99942.47
2022-10-22T04:35:40.789Z,99936.44
2022-10-22T04:38:08.792Z,99932.09
2022-10-22T04:40:36.845Z,99924.38
2022-10-22T04:43:04.902Z,99925.28
2022-10-22T04:45:34.331Z,99930.56
2022-10-22T04:48:02.377Z,99927.06
2022-10-22T04:50:32.008Z,99910.47
2022-10-22T04:53:00.007Z,99909.94
2022-10-22T04:55:28.102Z,99916.22
2022-10-22T04:57:56.195Z,99917.31
2022-10-22T05:00:24.162Z,99921.94
2022-10-22T05:02:52.654Z,99912.66
2022-10-22T05:05:20.643Z,99919.59
2022-10-22T05:07:52.289Z,99925.16
2022-10-22T05:10:20.384Z,99926.00
2022-10-22T05:12:48.355Z,99923.47
2022-10-22T05:15:16.503Z,99922.59
2022-10-22T05:17:44.824Z,99925.59
2022-10-22T05:20:13.317Z,99920.25
2022-10-22T05:22:41.325Z,99923.59
2022-10-22T05:25:12.334Z,99937.38
2022-10-22T05:27:40.587Z,99925.69
2022-10-22T05:30:09.375Z,99934.25
2022-10-22T05:32:37.336Z,99928.75
2022-10-22T05:35:05.707Z,99928.81
2022-10-22T05:37:33.713Z,99931.16
2022-10-22T05:40:12.620Z,99921.41
2022-10-22T05:42:51.088Z,99922.88
2022-10-22T05:45:19.061Z,99925.97
2022-10-22T05:47:47.059Z,99917.81
2022-10-22T05:50:15.255Z,99926.19
2022-10-22T05:52:43.495Z,99926.00
2022-10-22T05:55:11.589Z,99932.38
2022-10-22T05:57:40.899Z,99937.31
2022-10-22T06:00:14.254Z,99932.53
2022-10-22T06:02:44.597Z,99941.81
2022-10-22T06:05:12.639Z,99945.97
2022-10-22T06:07:40.636Z,99957.97
2022-10-22T06:10:12.494Z,99960.22
2022-10-22T06:12:40.985Z,99956.50
2022-10-22T06:15:12.811Z,99968.38
2022-10-22T06:17:41.042Z,99969.63
2022-10-22T06:20:10.611Z,99962.22
2022-10-22T06:22:38.830Z,99966.16
2022-10-22T06:25:08.530Z,99958.59
2022-10-22T06:27:36.700Z,99957.19
2022-10-22T06:30:05.664Z,99962.72
2022-10-22T06:32:35.200Z,99975.47
2022-10-22T06:35:03.243Z,99962.22
2022-10-22T06:37:31.223Z,99966.66
2022-10-22T06:39:59.225Z,99969.72
2022-10-22T06:42:27.327Z,99971.22
2022-10-22T06:44:55.334Z,99988.91
2022-10-22T06:47:23.370Z,99991.97
2022-10-22T06:49:52.804Z,99988.78
2022-10-22T06:52:20.810Z,99979.00
2022-10-22T06:54:48.872Z,99980.56
2022-10-22T06:57:17.352Z,99967.56
2022-10-22T06:59:45.582Z,99976.06
2022-10-22T07:02:13.562Z,99964.75
2022-10-22T07:04:41.688Z,99965.50
2022-10-22T07:07:11.039Z,99976.06
2022-10-22T07:09:39.558Z,99974.94
2022-10-22T07:12:08.078Z,99969.06
2022-10-22T07:14:38.927Z,99969.53
2022-10-22T07:17:06.884Z,99972.00
2022-10-22T07:19:34.976Z,99960.94
2022-10-22T07:22:03.067Z,99959.44
2022-10-22T07:24:32.577Z,99977.28
2022-10-22T07:27:00.597Z,99973.59
2022-10-22T07:29:28.830Z,99975.50
2022-10-22T07:31:56.835Z,99973.03
2022-10-22T07:34:24.810Z,99970.22
2022-10-22T07:36:52.824Z,99966.63
2022-10-22T07:39:20.817Z,99970.41
2022-10-22T07:41:50.231Z,99970.03
2022-10-22T07:44:18.259Z,99956.50
2022-10-22T07:46:48.871Z,99958.13
2022-10-22T07:49:17.180Z,99962.84
2022-10-22T07:51:45.324Z,99966.50
2022-10-22T07:54:13.505Z,99971.13
2022-10-22T07:56:41.521Z,99975.31
2022-10-22T07:59:10.917Z,99984.44
2022-10-22T08:01:38.958Z,99971.38
2022-10-22T08:04:08.453Z,99967.84
2022-10-22T08:06:38.725Z,99962.09
2022-10-22T08:09:06.944Z,99973.28
2022-10-22T08:11:35.111Z,99973.59
2022-10-22T08:14:03.210Z,99967.59
2022-10-22T08:16:32.561Z,99966.66
2022-10-22T08:19:00.545Z,99970.91
2022-10-22T08:21:28.634Z,99961.03
2022-10-22T08:23:56.715Z,99966.97
2022-10-22T08:26:24.815Z,99967.72
2022-10-22T08:28:52.833Z,99978.88
2022-10-22T08:31:20.827Z,99967.09
2022-10-22T08:33:50.621Z,99960.53
2022-10-22T08:36:18.693Z,99976.50
2022-10-22T08:38:46.912Z,99969.50
2022-10-22T08:41:18.832Z,99969.72
2022-10-22T08:44:16.947Z,99972.84
2022-10-22T08:47:00.589Z,99967.69
2022-10-22T08:49:35.127Z,99979.66
2022-10-22T08:52:06.164Z,99969.88
2022-10-22T08:54:41.716Z,99973.88
2022-10-22T08:57:25.389Z,99974.97
2022-10-22T08:59:59.314Z,99980.50
2022-10-22T09:02:39.713Z,99964.19
2022-10-22T09:05:23.363Z,99962.59
2022-10-22T09:07:51.700Z,99978.19
2022-10-22T09:10:22.967Z,99981.13
2022-10-22T09:12:51.012Z,99973.69
2022-10-22T09:15:20.653Z,99971.16
2022-10-22T09:18:00.857Z,99978.91
2022-10-22T09:20:39.811Z,99971.81
2022-10-22T09:23:25.756Z,99965.19
2022-10-22T09:25:53.799Z,99965.59
2022-10-22T09:28:21.774Z,99967.00
2022-10-22T09:30:50.178Z,99974.53
2022-10-22T09:33:25.357Z,99986.41
2022-10-22T09:35:56.572Z,99980.63
2022-10-22T09:38:27.742Z,99986.56
2022-10-22T09:40:58.131Z,99994.16
2022-10-22T09:43:26.556Z,99984.38
2022-10-22T09:45:58.845Z,99988.75
2022-10-22T09:48:32.249Z,99989.56
2022-10-22T09:51:07.474Z,99980.03
2022-10-22T09:53:40.614Z,99967.38
2022-10-22T09:56:11.321Z,99965.00
2022-10-22T09:58:44.016Z,99969.59
2022-10-22T10:01:18.917Z,99970.66
2022-10-22T10:03:48.919Z,99971.06
2022-10-22T10:06:21.251Z,99975.63
2022-10-22T10:08:50.051Z,99972.03
2022-10-22T10:11:29.234Z,99966.09
2022-10-22T10:14:09.873Z,99974.81
2022-10-22T10:16:51.034Z,99961.66
2022-10-22T10:19:35.236Z,99951.50
2022-10-22T10:22:14.475Z,99955.63
2022-10-22T10:24:58.205Z,99958.88
2022-10-22T10:27:32.317Z,99957.19
2022-10-22T10:30:04.028Z,99964.41
2022-10-22T10:32:56.824Z,99952.22
2022-10-22T10:35:28.767Z,99956.59
2022-10-22T10:38:25.909Z,99946.56
2022-10-22T10:41:05.542Z,99952.38
2022-10-22T10:43:42.475Z,99959.50
2022-10-22T10:46:19.660Z,99952.78
2022-10-22T10:48:52.218Z,99963.38
2022-10-22T10:51:27.331Z,99970.19
2022-10-22T10:54:32.927Z,99975.25
2022-10-22T10:57:06.886Z,99968.94
2022-10-22T10:59:52.003Z,99977.50
2022-10-22T11:02:46.691Z,99978.56
2022-10-22T11:05:40.044Z,99974.41
2022-10-22T11:08:14.891Z,99969.56
2022-10-22T11:10:47.744Z,99971.16
2022-10-22T11:13:24.089Z,99963.19
2022-10-22T11:15:56.576Z,99962.38
2022-10-22T11:18:28.762Z,99965.00
2022-10-22T11:21:11.420Z,99958.75
2022-10-22T11:23:43.952Z,99954.03
2022-10-22T11:26:16.389Z,99952.22
2022-10-22T11:28:49.016Z,99946.75
2022-10-22T11:31:19.096Z,99936.84
2022-10-22T11:34:00.543Z,99929.75
2022-10-22T11:36:33.686Z,99935.53
2022-10-22T11:39:05.045Z,99926.22
2022-10-22T11:41:36.144Z,99930.19
2022-10-22T11:44:11.619Z,99928.03
2022-10-22T11:46:47.185Z,99927.78
2022-10-22T11:49:25.099Z,99929.81
2022-10-22T11:52:22.724Z,99915.44
2022-10-22T11:54:54.718Z,99909.19
2022-10-22T11:57:28.575Z,99913.50
2022-10-22T11:59:59.976Z,99917.81
2022-10-22T12:02:45.221Z,99919.94
2022-10-22T12:05:44.148Z,99906.94
2022-10-22T12:08:28.737Z,99912.34
2022-10-22T12:11:13.311Z,99900.91
2022-10-22T12:14:02.970Z,99903.50
2022-10-22T12:16:55.088Z,99908.97
2022-10-22T12:19:30.417Z,99907.16
2022-10-22T12:22:00.992Z,99901.16
2022-10-22T12:24:34.322Z,99902.84
2022-10-22T12:27:02.388Z,99899.97
2022-10-22T12:29:34.085Z,99892.16
2022-10-22T12:32:05.111Z,99895.28
2022-10-22T12:34:33.101Z,99893.81
2022-10-22T12:37:01.183Z,99892.91
2022-10-22T12:39:30.136Z,99887.22
2022-10-22T12:41:58.109Z,99897.72
2022-10-22T12:44:26.139Z,99895.94
2022-10-22T12:46:57.031Z,99900.03
2022-10-22T12:49:33.110Z,99908.75
2022-10-22T12:52:04.333Z,99912.59
2022-10-22T12:54:34.621Z,99910.31
2022-10-22T12:57:03.226Z,99912.41
2022-10-22T12:59:36.287Z,99905.50
2022-10-22T13:02:22.503Z,99911.41
2022-10-22T13:05:17.042Z,99911.41
2022-10-22T13:07:48.536Z,99908.63
2022-10-22T13:10:27.078Z,99903.31
2022-10-22T13:12:57.989Z,99909.47
2022-10-22T13:15:38.508Z,99901.13
2022-10-22T13:18:18.095Z,99905.38
2022-10-22T13:20:57.633Z,99908.03
2022-10-22T13:23:28.161Z,99905.59
2022-10-22T13:26:00.910Z,99898.38
2022-10-22T13:28:30.658Z,99901.50
2022-10-22T13:31:01.028Z,99899.81
2022-10-22T13:33:34.569Z,99893.38
2022-10-22T13:36:02.979Z,99902.47
2022-10-22T13:38:31.274Z,99897.63
2022-10-22T13:40:59.901Z,99906.56
2022-10-22T13:43:28.002Z,99913.81
2022-10-22T13:45:59.370Z,99909.00
2022-10-22T13:48:31.370Z,99911.06
2022-10-22T13:50:59.444Z,99909.47
2022-10-22T13:53:28.861Z,99913.09
2022-10-22T13:55:56.923Z,99925.66
2022-10-22T13:58:26.093Z,99922.06
2022-10-22T14:00:55.927Z,99928.69
2022-10-22T14:03:27.596Z,99926.34
2022-10-22T14:05:57.379Z,99932.09
2022-10-22T14:08:26.682Z,99921.75
2022-10-22T14:10:54.816Z,99920.16
2022-10-22T14:13:23.115Z,99927.28
2022-10-22T14:15:53.533Z,99934.88
2022-10-22T14:18:26.708Z,99938.03
2022-10-22T14:20:58.083Z,99933.19
2022-10-22T14:23:28.053Z,99927.28
2022-10-22T14:25:56.929Z,99924.34
2022-10-22T14:28:25.186Z,99916.59
2022-10-22T14:30:53.861Z,99921.19
2022-10-22T14:33:28.817Z,99902.97
2022-10-22T14:36:01.063Z,99907.19
2022-10-22T14:38:29.338Z,99929.38
2022-10-22T14:40:58.542Z,99925.50
2022-10-22T14:43:28.902Z,99924.97
2022-10-22T14:45:57.158Z,99923.47
2022-10-22T14:48:25.399Z,99929.56
2022-10-22T14:50:53.584Z,99928.94
2022-10-22T14:53:23.060Z,99938.63
2022-10-22T14:55:51.877Z,99929.19
2022-10-22T14:58:19.966Z,99939.50
2022-10-22T15:00:47.987Z,99938.31
2022-10-22T15:03:16.044Z,99930.38
2022-10-22T15:05:45.282Z,99928.56
2022-10-22T15:08:14.503Z,99934.06
2022-10-22T15:10:44.161Z,99934.19
2022-10-22T15:13:12.319Z,99937.56
2022-10-22T15:15:41.901Z,99936.94
2022-10-22T15:18:09.919Z,99932.72
2022-10-22T15:20:37.984Z,99931.94
2022-10-22T15:23:06.544Z,99930.25
2022-10-22T15:25:34.642Z,99929.94
2022-10-22T15:28:09.501Z,99934.94
2022-10-22T15:30:38.279Z,99940.66
2022-10-22T15:33:07.514Z,99942.41
2022-10-22T15:35:35.588Z,99937.09
2022-10-22T15:38:06.634Z,99928.38
2022-10-22T15:40:34.653Z,99925.00
2022-10-22T15:43:04.116Z,99941.00
2022-10-22T15:45:32.163Z,99947.91
2022-10-22T15:48:00.258Z,99958.94
2022-10-22T15:50:28.669Z,99957.25
2022-10-22T15:52:57.596Z,99961.91
2022-10-22T15:55:25.577Z,99969.13
2022-10-22T15:57:58.061Z,99973.78
2022-10-22T16:00:30.043Z,99975.91
2022-10-22T16:02:58.017Z,99981.44
2022-10-22T16:05:27.971Z,99984.28
2022-10-22T16:07:57.445Z,99988.63
2022-10-22T16:10:25.917Z,99995.16
2022-10-22T16:12:55.024Z,99994.56
2022-10-22T16:15:23.109Z,100006.50
2022-10-22T16:17:53.927Z,100010.19
2022-10-22T16:20:21.966Z,100014.44
2022-10-22T16:22:51.192Z,100015.91
2022-10-22T16:25:19.198Z,100024.22
2022-10-22T16:27:50.707Z,100046.03
2022-10-22T16:30:18.881Z,100047.69
2022-10-22T16:32:47.140Z,100048.63
2022-10-22T16:35:16.883Z,100053.38
2022-10-22T16:37:44.842Z,100063.59
2022-10-22T16:40:14.050Z,100062.50
2022-10-22T16:42:42.453Z,100074.97
2022-10-22T16:45:11.285Z,100073.28
2022-10-22T16:47:40.527Z,100073.38
2022-10-22T16:50:09.614Z,100073.03
2022-10-22T16:52:38.976Z,100079.56
2022-10-22T16:55:07.880Z,100081.44
2022-10-22T16:57:36.082Z,100083.41
2022-10-22T17:00:05.398Z,100083.88
2022-10-22T17:02:34.153Z,100095.59
2022-10-22T17:05:02.743Z,100090.72
2022-10-22T17:07:31.134Z,100092.56
2022-10-22T17:10:01.589Z,100087.44
2022-10-22T17:12:35.307Z,100086.13
2022-10-22T17:15:03.965Z,100086.97
2022-10-22T17:17:32.711Z,100084.78
2022-10-22T17:20:00.817Z,100074.63
2022-10-22T17:22:29.265Z,100072.16
2022-10-22T17:25:12.511Z,100075.91
2022-10-22T17:27:41.079Z,100087.31
2022-10-22T17:30:13.725Z,100084.84
2022-10-22T17:32:41.811Z,100094.13
2022-10-22T17:35:10.805Z,100093.63
2022-10-22T17:37:39.404Z,100106.16
2022-10-22T17:40:10.832Z,100103.88
2022-10-22T17:42:39.466Z,100096.41
2022-10-22T17:45:09.686Z,100108.06
2022-10-22T17:47:38.108Z,100116.94
2022-10-22T17:50:07.125Z,100125.03
2022-10-22T17:52:35.457Z,100126.34
2022-10-22T17:55:04.003Z,100112.47
2022-10-22T17:57:33.753Z,100106.50
2022-10-22T18:00:02.076Z,100110.84
2022-10-22T18:02:30.533Z,100125.16
2022-10-22T18:04:58.789Z,100130.69
2022-10-22T18:07:27.280Z,100139.44
2022-10-22T18:09:56.204Z,100143.97
2022-10-22T18:12:24.697Z,100128.16
2022-10-22T18:14:55.288Z,100138.19
2022-10-22T18:17:23.668Z,100144.25
2022-10-22T18:19:51.949Z,100136.84
2022-10-22T18:22:20.327Z,100135.13
2022-10-22T18:24:48.390Z,100139.75
2022-10-22T18:27:16.837Z,100147.88
2022-10-22T18:29:44.999Z,100147.97
2022-10-22T18:32:14.906Z,100149.94
2022-10-22T18:34:43.354Z,100163.06
2022-10-22T18:37:12.386Z,100164.91
2022-10-22T18:39:40.977Z,100162.38
2022-10-22T18:42:09.540Z,100166.88
2022-10-22T18:44:38.209Z,100187.97
2022-10-22T18:47:06.800Z,100180.50
2022-10-22T18:49:36.555Z,100177.66
2022-10-22T18:52:04.958Z,100167.38
2022-10-22T18:54:33.740Z,100169.25
2022-10-22T18:57:03.186Z,100172.06
2022-10-22T18:59:32.286Z,100160.78
2022-10-22T19:02:00.662Z,100148.53
2022-10-22T19:04:33.605Z,100167.75
2022-10-22T19:07:03.527Z,100175.75
2022-10-22T19:09:32.113Z,100174.91
2022-10-22T19:12:00.193Z,100166.41
2022-10-22T19:14:28.768Z,100172.75
2022-10-22T19:16:56.939Z,100161.44
2022-10-22T19:19:25.994Z,100168.22
2022-10-22T19:21:56.844Z,100181.81
2022-10-22T19:24:27.451Z,100181.25
2022-10-22T19:26:55.603Z,100183.38
2022-10-22T19:29:24.095Z,100183.06
2022-10-22T19:31:52.398Z,100185.38
2022-10-22T19:34:21.235Z,100198.25
2022-10-22T19:36:51.942Z,100189.75
2022-10-22T19:39:20.501Z,100196.38
2022-10-22T19:41:50.409Z,100208.16
2022-10-22T19:44:20.315Z,100200.56
2022-10-22T19:46:49.241Z,100214.19
2022-10-22T19:49:22.084Z,100212.09
2022-10-22T19:51:51.524Z,100218.50
2022-10-22T19:54:20.739Z,100218.72
2022-10-22T19:56:50.765Z,100222.50
2022-10-22T19:59:21.176Z,100234.19
2022-10-22T20:01:49.448Z,100234.25
2022-10-22T20:04:18.770Z,100247.50
2022-10-22T20:06:47.431Z,100238.03
2022-10-22T20:09:15.502Z,100254.81
2022-10-22T20:11:43.756Z,100260.38
2022-10-22T20:14:14.093Z,100255.31
2022-10-22T20:16:42.544Z,100254.69
2022-10-22T20:19:13.585Z,100245.06
2022-10-22T20:21:42.518Z,100261.22
2022-10-22T20:24:11.934Z,100258.78
2022-10-22T20:26:40.614Z,100259.06
2022-10-22T20:29:09.596Z,100263.19
2022-10-22T20:31:38.950Z,100262.66
2022-10-22T20:34:06.933Z,100265.31
2022-10-22T20:36:34.921Z,100257.56
2022-10-22T20:39:06.367Z,100264.53
2022-10-22T20:41:35.311Z,100262.97
2022-10-22T20:44:03.873Z,100263.59
2022-10-22T20:46:33.658Z,100271.34
2022-10-22T20:49:07.607Z,100261.81
2022-10-22T20:51:37.142Z,100273.06
2022-10-22T20:54:06.419Z,100271.50
2022-10-22T20:56:35.927Z,100273.47
2022-10-22T20:59:08.360Z,100275.31
2022-10-22T21:01:39.738Z,100277.00
2022-10-22T21:04:09.774Z,100283.25
2022-10-22T21:06:40.414Z,100271.34
2022-10-22T21:09:09.652Z,100282.50
2022-10-22T21:11:39.294Z,100282.69
2022-10-22T21:14:08.570Z,100286.28
2022-10-22T21:16:37.428Z,100291.66
2022-10-22T21:19:05.393Z,100290.38
2022-10-22T21:21:34.747Z,100281.88
2022-10-22T21:24:02.743Z,100286.56
2022-10-22T21:26:30.908Z,100292.94
2022-10-22T21:28:58.947Z,100291.09
2022-10-22T21:31:27.974Z,100298.31
2022-10-22T21:33:56.400Z,100289.97
2022-10-22T21:36:25.196Z,100290.69
2022-10-22T21:38:55.058Z,100281.84
2022-10-22T21:41:24.886Z,100286.41
2022-10-22T21:43:53.418Z,100289.28
2022-10-22T21:46:23.059Z,100286.44
2022-10-22T21:48:55.115Z,100275.63
2022-10-22T21:51:24.576Z,100278.72
2022-10-22T21:53:55.245Z,100280.56
2022-10-22T21:56:25.305Z,100278.25
2022-10-22T21:58:53.665Z,100278.25
2022-10-22T22:01:24.205Z,100278.41
2022-10-22T22:03:55.849Z,100267.09
2022-10-22T22:06:28.374Z,100254.22
2022-10-22T22:09:06.221Z,100249.56
2022-10-22T22:11:37.099Z,100255.91
2022-10-22T22:14:05.111Z,100254.38
2022-10-22T22:16:34.537Z,100258.88
2022-10-22T22:21:42.310Z,100252.50
2022-10-22T22:24:14.006Z,100259.31
2022-10-22T22:26:42.044Z,100267.50
2022-10-22T22:29:11.466Z,100265.34
2022-10-22T22:31:40.297Z,100276.22
2022-10-22T22:34:12.427Z,100279.66
2022-10-22T22:36:42.136Z,100288.59
2022-10-22T22:39:14.967Z,100294.31
2022-10-22T22:41:43.105Z,100292.59
2022-10-22T22:44:14.301Z,100291.31
2022-10-22T22:46:42.469Z,100303.53
2022-10-22T22:49:10.791Z,100307.47
2022-10-22T22:51:38.796Z,100304.09
2022-10-22T22:54:06.898Z,100311.59
2022-10-22T22:56:36.515Z,100318.59
2022-10-22T22:59:06.159Z,100317.84
2022-10-22T23:01:36.507Z,100327.53
2022-10-22T23:04:06.413Z,100328.38
2022-10-22T23:06:37.290Z,100331.22
2022-10-22T23:09:06.191Z,100332.22
2022-10-22T23:11:36.022Z,100330.47
2022-10-22T23:14:06.278Z,100327.38
2022-10-22T23:16:36.894Z,100330.81
2022-10-22T23:19:06.230Z,100324.94
2022-10-22T23:21:35.906Z,100316.63
2022-10-22T23:24:06.414Z,100322.09
2022-10-22T23:26:37.745Z,100317.13
2022-10-22T23:29:07.877Z,100320.81
2022-10-22T23:31:36.002Z,100325.22
2022-10-22T23:34:04.181Z,100324.69
2022-10-22T23:36:32.358Z,100328.59
2022-10-22T23:39:04.810Z,100333.84
2022-10-22T23:41:32.926Z,100340.69
2022-10-22T23:44:03.543Z,100333.56
2022-10-22T23:46:32.803Z,100329.75
2022-10-22T23:49:01.099Z,100329.66
2022-10-22T23:51:29.615Z,100340.28
2022-10-22T23:53:59.240Z,100340.53
2022-10-22T23:56:28.232Z,100332.16
2022-10-22T23:58:57.135Z,100328.16
